South Seaville, New Jersey
Current Conditions -  °F | °C
As of 12:35 AM on Friday 28 Nov 2014 (Local Time) from KWWD Reporting Station
Broken Clouds Broken Clouds  
Wind Chill:   Ceiling: 2200
Heat Index:   Visibility: 10mi
Dew Point: -3°   Wind: 8mph
Humidity: 65%   Direction: 320°NW
Pressure: 30.11"   Gusts: NA
Location:  39.18°N, 74.76°W
Report Text: KWWD 280535Z AUTO 32007KT 10SM BKN022 BKN028 03/M03 A3011 RMK AO1
Loading
Personal Weather Stations






























Interactive Weather Map New forecast layout! Learn more

10-Day Weather Forecast

Advertisements
Track Severe Weather on mobile